createdAt,value
2022-12-19T00:02:56.233Z,-6.63
2022-12-19T00:08:18.317Z,-6.73
2022-12-19T00:13:41.322Z,-6.99
2022-12-19T00:19:03.696Z,-7.10
2022-12-19T00:24:25.594Z,-7.12
2022-12-19T00:29:47.722Z,-7.02
2022-12-19T00:35:10.457Z,-6.66
2022-12-19T00:40:32.158Z,-6.10
2022-12-19T00:45:54.542Z,-5.79
2022-12-19T00:51:18.746Z,-5.88
2022-12-19T00:56:40.279Z,-5.95
2022-12-19T01:02:02.430Z,-5.89
2022-12-19T01:07:25.253Z,-5.88
2022-12-19T01:12:47.611Z,-5.92
2022-12-19T01:18:10.563Z,-6.07
2022-12-19T01:23:32.540Z,-6.34
2022-12-19T01:28:54.169Z,-6.27
2022-12-19T01:34:16.292Z,-6.17
2022-12-19T01:39:38.222Z,-6.07
2022-12-19T01:45:06.077Z,-6.04
2022-12-19T01:51:01.237Z,-6.04
2022-12-19T01:56:28.835Z,-6.00
2022-12-19T02:01:57.346Z,-6.29
2022-12-19T02:07:20.624Z,-6.20
2022-12-19T02:12:44.364Z,-5.98
2022-12-19T02:18:25.064Z,-5.82
2022-12-19T02:24:28.639Z,-5.77
2022-12-19T02:30:41.554Z,-5.74
2022-12-19T02:36:13.012Z,-5.75
2022-12-19T02:41:44.580Z,-5.85
2022-12-19T02:47:13.681Z,-5.84
2022-12-19T02:52:36.776Z,-5.80
2022-12-19T02:58:08.975Z,-5.95
2022-12-19T03:03:57.164Z,-6.35
2022-12-19T03:09:37.514Z,-6.55
2022-12-19T03:15:00.192Z,-6.33
2022-12-19T03:20:44.911Z,-6.11
2022-12-19T03:26:11.054Z,-6.02
2022-12-19T03:31:33.589Z,-5.95
2022-12-19T03:37:02.708Z,-5.93
2022-12-19T03:42:45.199Z,-6.25
2022-12-19T03:48:22.143Z,-6.55
2022-12-19T03:54:21.900Z,-6.69
2022-12-19T03:59:59.476Z,-6.85
2022-12-19T04:05:23.771Z,-7.02
2022-12-19T04:10:52.163Z,-6.93
2022-12-19T04:16:19.074Z,-7.17
2022-12-19T04:22:08.841Z,-7.27
2022-12-19T04:27:36.224Z,-7.22
2022-12-19T04:32:58.372Z,-7.01
2022-12-19T04:38:21.577Z,-6.78
2022-12-19T04:49:43.398Z,-6.92
2022-12-19T04:55:06.079Z,-7.33
2022-12-19T05:00:28.083Z,-7.17
2022-12-19T05:05:50.121Z,-7.05
2022-12-19T05:11:19.402Z,-7.03
2022-12-19T05:16:41.975Z,-6.89
2022-12-19T05:22:04.323Z,-6.75
2022-12-19T05:27:26.710Z,-6.69
2022-12-19T05:32:48.371Z,-6.85
2022-12-19T05:38:09.892Z,-6.92
2022-12-19T05:43:32.122Z,-7.05
2022-12-19T05:48:54.293Z,-7.31
2022-12-19T05:54:15.977Z,-7.15
2022-12-19T05:59:37.705Z,-7.02
2022-12-19T06:04:59.733Z,-6.95
2022-12-19T06:10:21.268Z,-6.92
2022-12-19T06:15:43.021Z,-7.06
2022-12-19T06:21:10.653Z,-7.23
2022-12-19T06:26:32.467Z,-7.39
2022-12-19T06:31:54.222Z,-7.51
2022-12-19T06:37:16.227Z,-7.44
2022-12-19T06:42:37.851Z,-7.53
2022-12-19T06:47:59.825Z,-7.37
2022-12-19T06:53:22.311Z,-7.47
2022-12-19T06:58:44.677Z,-7.37
2022-12-19T07:04:07.802Z,-7.43
2022-12-19T07:09:31.109Z,-7.37
2022-12-19T07:14:53.692Z,-7.17
2022-12-19T07:20:16.775Z,-7.11
2022-12-19T07:25:39.575Z,-7.60
2022-12-19T07:31:01.539Z,-7.50
2022-12-19T07:36:23.565Z,-7.55
2022-12-19T07:41:45.595Z,-7.62
2022-12-19T07:47:10.042Z,-7.79
2022-12-19T07:52:31.866Z,-7.75
2022-12-19T07:57:54.091Z,-7.80
2022-12-19T08:03:15.978Z,-7.62
2022-12-19T08:08:38.052Z,-7.22
2022-12-19T08:13:59.781Z,-6.94
2022-12-19T08:19:25.999Z,-6.74
2022-12-19T08:24:49.360Z,-6.41
2022-12-19T08:30:14.096Z,-6.20
2022-12-19T08:35:36.932Z,-6.23
2022-12-19T08:40:58.556Z,-6.21
2022-12-19T08:46:21.391Z,-6.14
2022-12-19T08:51:43.623Z,-5.73
2022-12-19T08:57:05.555Z,-5.32
2022-12-19T09:02:27.419Z,-4.89
2022-12-19T09:07:49.713Z,-4.51
2022-12-19T09:13:12.367Z,-4.21
2022-12-19T09:18:36.777Z,-3.91
2022-12-19T09:24:07.110Z,-3.62
2022-12-19T09:29:33.607Z,-3.51
2022-12-19T09:34:57.223Z,-3.37
2022-12-19T09:40:19.157Z,-3.13
2022-12-19T09:45:49.961Z,-2.89
2022-12-19T09:51:14.160Z,-2.84
2022-12-19T09:56:45.345Z,-2.81
2022-12-19T10:02:28.015Z,-2.86
2022-12-19T10:08:07.665Z,-2.67
2022-12-19T10:13:49.622Z,-2.25
2022-12-19T10:19:30.900Z,-1.94
2022-12-19T10:25:25.145Z,-1.72
2022-12-19T10:31:04.588Z,-1.39
2022-12-19T10:42:32.380Z,-1.11
2022-12-19T10:47:58.145Z,-1.06
2022-12-19T10:53:30.598Z,-0.93
2022-12-19T10:58:57.482Z,-0.81
2022-12-19T11:04:32.162Z,-0.61
2022-12-19T11:10:09.895Z,-0.58
2022-12-19T11:21:38.748Z,-0.47
2022-12-19T11:29:54.947Z,-0.48
2022-12-19T11:30:47.280Z,-0.62
2022-12-19T11:33:24.173Z,-0.57
2022-12-19T11:38:52.945Z,-0.41
2022-12-19T11:44:30.686Z,-0.31
2022-12-19T11:50:08.674Z,-0.29
2022-12-19T11:55:43.710Z,-0.15
2022-12-19T12:01:05.579Z,-0.05
2022-12-19T12:06:33.896Z,-0.03
2022-12-19T12:21:24.998Z,-0.00
2022-12-19T12:31:02.723Z,0.15
2022-12-19T12:31:43.769Z,0.38
2022-12-19T12:32:06.159Z,0.36
2022-12-19T12:37:54.152Z,0.42
2022-12-19T12:42:03.924Z,0.28
2022-12-19T12:47:27.684Z,0.11
2022-12-19T12:53:00.402Z,0.12
2022-12-19T12:58:44.415Z,0.23
2022-12-19T13:04:12.163Z,0.28
2022-12-19T13:09:36.676Z,0.24
2022-12-19T13:15:27.133Z,0.39
2022-12-19T13:20:49.257Z,0.32
2022-12-19T13:26:23.431Z,0.32
2022-12-19T13:32:08.916Z,0.28
2022-12-19T13:39:51.209Z,0.24
2022-12-19T13:43:40.967Z,0.35
2022-12-19T13:49:07.027Z,0.30
2022-12-19T13:54:33.105Z,0.31
2022-12-19T14:00:00.176Z,0.27
2022-12-19T14:05:49.359Z,0.21
2022-12-19T14:11:45.059Z,0.04
2022-12-19T14:17:09.427Z,-0.13
2022-12-19T14:22:31.151Z,-0.13
2022-12-19T14:28:29.364Z,-0.10
2022-12-19T14:34:18.457Z,-0.12
2022-12-19T14:39:35.787Z,-0.17
2022-12-19T14:53:34.046Z,-0.47
2022-12-19T14:54:13.937Z,-0.63
2022-12-19T15:02:07.635Z,-0.87
2022-12-19T15:07:32.457Z,-0.98
2022-12-19T15:14:52.222Z,-1.09
2022-12-19T15:18:59.888Z,-1.15
2022-12-19T15:24:21.623Z,-1.07
2022-12-19T15:29:44.431Z,-0.98
2022-12-19T15:35:18.534Z,-1.04
2022-12-19T15:40:42.791Z,-1.04
2022-12-19T15:46:04.632Z,-1.09
2022-12-19T15:51:26.343Z,-1.09
2022-12-19T15:56:51.236Z,-1.10
2022-12-19T16:02:24.496Z,-1.01
2022-12-19T16:07:46.775Z,-0.94
2022-12-19T16:13:20.547Z,-0.84
2022-12-19T16:18:42.747Z,-0.78
2022-12-19T16:24:04.737Z,-0.81
2022-12-19T16:29:28.437Z,-0.85
2022-12-19T16:34:51.198Z,-0.93
2022-12-19T16:40:21.055Z,-1.06
2022-12-19T16:45:43.658Z,-1.14
2022-12-19T16:51:07.867Z,-1.14
2022-12-19T16:56:48.085Z,-1.12
2022-12-19T17:02:43.592Z,-1.11
2022-12-19T17:08:12.883Z,-1.01
2022-12-19T17:13:34.867Z,-0.86
2022-12-19T17:18:58.037Z,-0.73
2022-12-19T17:24:20.015Z,-0.59
2022-12-19T17:29:41.688Z,-0.49
2022-12-19T17:35:03.563Z,-0.40
2022-12-19T17:40:28.353Z,-0.32
2022-12-19T17:45:51.230Z,-0.25
2022-12-19T17:51:13.698Z,-0.29
2022-12-19T17:56:35.327Z,-0.34
2022-12-19T18:01:57.480Z,-0.34
2022-12-19T18:07:19.532Z,-0.36
2022-12-19T18:12:41.281Z,-0.36
2022-12-19T18:18:03.314Z,-0.35
2022-12-19T18:23:25.418Z,-0.32
2022-12-19T18:28:47.470Z,-0.29
2022-12-19T18:34:18.948Z,-0.21
2022-12-19T18:39:40.871Z,-0.14
2022-12-19T18:45:02.997Z,-0.11
2022-12-19T18:50:26.543Z,-0.08
2022-12-19T18:55:49.465Z,0.01
2022-12-19T19:01:15.561Z,0.01
2022-12-19T19:06:38.432Z,0.03
2022-12-19T19:12:00.272Z,0.04
2022-12-19T19:17:27.386Z,0.04
2022-12-19T19:22:50.155Z,0.05
2022-12-19T19:28:12.291Z,0.03
2022-12-19T19:33:37.691Z,0.04
2022-12-19T19:38:59.868Z,0.04
2022-12-19T19:44:22.098Z,0.10
2022-12-19T19:49:44.857Z,0.19
2022-12-19T19:55:09.521Z,0.24
2022-12-19T20:00:31.897Z,0.29
2022-12-19T20:06:01.071Z,0.30
2022-12-19T20:11:23.474Z,0.34
2022-12-19T20:16:45.454Z,0.37
2022-12-19T20:22:07.912Z,0.44
2022-12-19T20:27:29.860Z,0.45
2022-12-19T20:32:51.689Z,0.45
2022-12-19T20:38:13.445Z,0.42
2022-12-19T20:43:35.959Z,0.41
2022-12-19T20:48:57.900Z,0.40
2022-12-19T20:54:20.111Z,0.38
2022-12-19T20:59:42.077Z,0.40
2022-12-19T21:05:04.685Z,0.42
2022-12-19T21:10:26.500Z,0.47
2022-12-19T21:15:55.600Z,0.43
2022-12-19T21:21:24.279Z,0.46
2022-12-19T21:26:47.610Z,0.54
2022-12-19T21:32:15.068Z,0.60
2022-12-19T21:37:43.691Z,0.64
2022-12-19T21:43:11.806Z,0.71
2022-12-19T21:48:42.286Z,0.71
2022-12-19T21:54:05.023Z,0.71
2022-12-19T21:59:27.396Z,0.75
2022-12-19T22:04:49.896Z,0.76
2022-12-19T22:10:11.903Z,0.74
2022-12-19T22:15:36.599Z,0.75
2022-12-19T22:21:01.567Z,0.77
2022-12-19T22:26:24.460Z,0.77
2022-12-19T22:31:46.596Z,0.77
2022-12-19T22:37:08.584Z,0.75
2022-12-19T22:42:30.550Z,0.77
2022-12-19T22:47:52.517Z,0.78
2022-12-19T22:53:15.548Z,0.77
2022-12-19T22:58:40.355Z,0.74
2022-12-19T23:04:03.646Z,0.69
2022-12-19T23:09:25.541Z,0.62
2022-12-19T23:14:47.464Z,0.59
2022-12-19T23:20:09.902Z,0.57
2022-12-19T23:25:31.754Z,0.56
2022-12-19T23:31:03.301Z,0.60
2022-12-19T23:37:00.357Z,0.68
2022-12-19T23:42:06.816Z,0.74
2022-12-19T23:47:28.990Z,0.81
2022-12-19T23:52:50.883Z,0.84
2022-12-19T23:58:16.655Z,0.89
